createdAt,value
2023-01-20T00:01:39.054Z,50.00
2023-01-20T00:04:07.143Z,49.00
2023-01-20T00:06:34.036Z,44.10
2023-01-20T00:09:02.055Z,50.00
2023-01-20T00:11:29.660Z,46.20
2023-01-20T00:13:58.520Z,45.00
2023-01-20T00:16:25.754Z,51.00
2023-01-20T00:18:52.809Z,44.80
2023-01-20T00:21:19.848Z,51.10
2023-01-20T00:23:47.204Z,48.30
2023-01-20T00:26:19.412Z,53.00
2023-01-20T00:28:47.262Z,48.70
2023-01-20T00:31:15.659Z,52.10
2023-01-20T00:33:44.123Z,43.20
2023-01-20T00:36:12.377Z,54.30
2023-01-20T00:38:40.781Z,46.30
2023-01-20T00:41:08.513Z,52.30
2023-01-20T00:43:36.491Z,51.40
2023-01-20T00:46:04.317Z,54.10
2023-01-20T00:48:31.816Z,46.20
2023-01-20T00:50:59.361Z,49.00
2023-01-20T00:53:29.302Z,52.30
2023-01-20T00:55:56.285Z,47.90
2023-01-20T00:58:23.196Z,51.20
2023-01-20T01:00:51.128Z,48.30
2023-01-20T01:03:18.394Z,44.00
2023-01-20T01:05:45.430Z,46.10
2023-01-20T01:08:12.583Z,57.50
2023-01-20T01:10:40.739Z,50.00
2023-01-20T01:13:09.132Z,48.70
2023-01-20T01:15:36.385Z,50.90
2023-01-20T01:18:03.742Z,57.70
2023-01-20T01:20:31.300Z,55.50
2023-01-20T01:22:58.685Z,52.40
2023-01-20T01:25:26.112Z,53.20
2023-01-20T01:27:53.465Z,46.10
2023-01-20T01:30:20.971Z,52.70
2023-01-20T01:32:48.610Z,51.40
2023-01-20T01:35:16.466Z,51.20
2023-01-20T01:37:44.117Z,60.00
2023-01-20T01:40:12.137Z,49.10
2023-01-20T01:42:41.345Z,49.80
2023-01-20T01:45:11.982Z,44.30
2023-01-20T01:47:53.499Z,49.90
2023-01-20T01:50:33.448Z,48.30
2023-01-20T01:53:01.013Z,45.90
2023-01-20T01:55:30.817Z,55.70
2023-01-20T01:57:59.000Z,53.00
2023-01-20T02:00:26.858Z,51.10
2023-01-20T02:02:54.306Z,50.10
2023-01-20T02:05:22.940Z,48.30
2023-01-20T02:07:50.524Z,54.00
2023-01-20T02:10:18.420Z,48.50
2023-01-20T02:12:47.586Z,44.60
2023-01-20T02:15:15.652Z,53.70
2023-01-20T02:17:46.729Z,45.00
2023-01-20T02:20:39.989Z,46.60
2023-01-20T02:23:35.504Z,52.50
2023-01-20T02:26:41.437Z,49.70
2023-01-20T02:29:33.392Z,45.00
2023-01-20T02:32:09.757Z,43.90
2023-01-20T02:34:42.914Z,48.30
2023-01-20T02:37:16.067Z,49.50
2023-01-20T02:40:01.840Z,43.30
2023-01-20T02:42:41.432Z,46.70
2023-01-20T02:45:20.494Z,44.00
2023-01-20T02:47:59.241Z,44.30
2023-01-20T02:50:28.104Z,44.20
2023-01-20T02:52:57.353Z,45.00
2023-01-20T02:55:37.173Z,42.80
2023-01-20T02:58:11.425Z,46.90
2023-01-20T03:00:47.584Z,43.30
2023-01-20T03:03:18.048Z,44.70
2023-01-20T03:05:49.742Z,54.10
2023-01-20T03:08:17.479Z,41.60
2023-01-20T03:10:45.341Z,42.90
2023-01-20T03:13:50.303Z,49.30
2023-01-20T03:16:19.545Z,51.40
2023-01-20T03:18:47.342Z,42.80
2023-01-20T03:21:14.933Z,45.70
2023-01-20T03:23:47.539Z,43.40
2023-01-20T03:26:17.342Z,49.60
2023-01-20T03:28:45.770Z,46.30
2023-01-20T03:31:18.742Z,42.00
2023-01-20T03:33:47.037Z,49.30
2023-01-20T03:36:14.900Z,44.30
2023-01-20T03:38:44.097Z,45.80
2023-01-20T03:41:21.101Z,49.60
2023-01-20T03:43:59.796Z,51.50
2023-01-20T03:46:40.563Z,49.50
2023-01-20T03:49:13.346Z,42.10
2023-01-20T03:51:55.421Z,40.40
2023-01-20T03:54:24.821Z,41.50
2023-01-20T03:57:08.893Z,42.60
2023-01-20T03:59:38.322Z,38.10
2023-01-20T04:02:07.039Z,37.00
2023-01-20T04:04:36.867Z,39.80
2023-01-20T04:07:06.191Z,41.10
2023-01-20T04:09:36.063Z,35.60
2023-01-20T04:12:04.074Z,39.50
2023-01-20T04:14:31.737Z,37.30
2023-01-20T04:16:59.316Z,41.70
2023-01-20T04:19:27.569Z,41.00
2023-01-20T04:22:13.158Z,33.60
2023-01-20T04:24:53.519Z,37.90
2023-01-20T04:27:21.178Z,38.40
2023-01-20T04:29:48.628Z,44.20
2023-01-20T04:32:16.907Z,37.30
2023-01-20T04:34:44.670Z,35.70
2023-01-20T04:37:12.432Z,37.80
2023-01-20T04:39:40.195Z,41.40
2023-01-20T04:42:07.889Z,41.20
2023-01-20T04:44:35.724Z,34.50
2023-01-20T04:47:03.384Z,40.80
2023-01-20T04:49:31.076Z,35.20
2023-01-20T04:51:58.282Z,40.50
2023-01-20T04:54:25.760Z,41.00
2023-01-20T04:56:53.322Z,37.80
2023-01-20T04:59:20.775Z,42.70
2023-01-20T05:01:48.511Z,42.70
2023-01-20T05:04:16.411Z,36.70
2023-01-20T05:06:45.307Z,38.70
2023-01-20T05:09:13.700Z,33.50
2023-01-20T05:11:42.161Z,32.80
2023-01-20T05:14:11.356Z,32.30
2023-01-20T05:16:38.906Z,34.50
2023-01-20T05:19:06.776Z,38.00
2023-01-20T05:21:34.538Z,37.80
2023-01-20T05:24:02.144Z,42.60
2023-01-20T05:26:29.967Z,41.30
2023-01-20T05:28:57.650Z,34.30
2023-01-20T05:31:25.413Z,35.80
2023-01-20T05:33:53.050Z,35.10
2023-01-20T05:36:20.606Z,34.90
2023-01-20T05:38:48.167Z,39.10
2023-01-20T05:41:15.837Z,44.10
2023-01-20T05:43:43.185Z,37.00
2023-01-20T05:46:10.868Z,38.30
2023-01-20T05:48:38.712Z,46.50
2023-01-20T05:51:08.528Z,36.80
2023-01-20T05:53:36.285Z,40.30
2023-01-20T05:56:05.395Z,36.10
2023-01-20T05:58:32.889Z,40.80
2023-01-20T06:01:07.732Z,37.90
2023-01-20T06:03:35.681Z,37.30
2023-01-20T06:06:04.936Z,35.80
2023-01-20T06:08:32.611Z,41.10
2023-01-20T06:11:00.050Z,36.80
2023-01-20T06:13:27.614Z,38.60
2023-01-20T06:15:55.613Z,34.80
2023-01-20T06:18:23.445Z,35.90
2023-01-20T06:20:51.025Z,37.30
2023-01-20T06:42:54.948Z,39.80
2023-01-20T06:45:22.420Z,39.70
2023-01-20T06:47:49.890Z,40.40
2023-01-20T06:50:17.513Z,37.10
2023-01-20T06:52:44.995Z,41.70
2023-01-20T06:55:13.045Z,36.30
2023-01-20T06:57:41.012Z,38.80
2023-01-20T07:00:09.283Z,40.00
2023-01-20T07:02:37.003Z,43.90
2023-01-20T07:05:08.401Z,38.50
2023-01-20T07:10:04.132Z,40.80
2023-01-20T07:12:31.683Z,41.70
2023-01-20T07:14:59.358Z,43.90
2023-01-20T07:17:27.109Z,43.30
2023-01-20T11:45:19.867Z,27.90
2023-01-20T11:48:05.077Z,48.10
2023-01-20T11:50:37.188Z,30.40
2023-01-20T11:53:24.345Z,31.10
2023-01-20T11:55:54.004Z,29.00
2023-01-20T11:58:49.155Z,32.60
2023-01-20T12:01:28.920Z,29.30
2023-01-20T12:04:13.000Z,28.10
2023-01-20T12:06:52.094Z,29.10
2023-01-20T12:09:22.547Z,29.00
2023-01-20T12:11:53.924Z,27.70
2023-01-20T12:14:26.024Z,30.80
2023-01-20T12:17:14.990Z,34.80
2023-01-20T12:19:58.212Z,27.80
2023-01-20T12:22:38.781Z,30.50
2023-01-20T12:25:24.975Z,28.80
2023-01-20T12:28:04.251Z,30.00
2023-01-20T12:30:46.856Z,31.40
2023-01-20T12:33:18.791Z,31.40
2023-01-20T12:36:26.171Z,31.90
2023-01-20T12:38:58.274Z,31.20
2023-01-20T12:42:07.177Z,34.00
2023-01-20T12:44:47.731Z,36.90
2023-01-20T12:47:36.788Z,36.20
2023-01-20T12:50:22.576Z,32.20
2023-01-20T12:53:02.528Z,31.20
2023-01-20T12:55:41.582Z,36.80
2023-01-20T12:58:15.977Z,36.90
2023-01-20T13:00:49.420Z,37.30
2023-01-20T13:03:28.925Z,40.50
2023-01-20T13:06:14.408Z,35.30
2023-01-20T13:08:50.959Z,33.80
2023-01-20T13:11:32.854Z,34.60
2023-01-20T13:14:14.860Z,37.90
2023-01-20T13:17:13.028Z,37.80
2023-01-20T13:19:41.777Z,32.70
2023-01-20T13:22:16.243Z,34.20
2023-01-20T13:24:45.541Z,33.30
2023-01-20T13:27:14.226Z,33.40
2023-01-20T13:29:43.599Z,35.10
2023-01-20T13:32:33.711Z,34.40
2023-01-20T13:35:02.810Z,32.40
2023-01-20T13:37:37.832Z,38.00
2023-01-20T13:40:32.433Z,32.90
2023-01-20T13:43:00.099Z,33.30
2023-01-20T13:45:27.978Z,35.90
2023-01-20T13:48:08.540Z,33.30
2023-01-20T13:50:40.895Z,40.00
2023-01-20T13:53:11.023Z,47.60
2023-01-20T13:55:45.332Z,39.40
2023-01-20T13:58:25.901Z,43.70
2023-01-20T14:00:57.242Z,43.50
2023-01-20T14:03:32.530Z,37.30
2023-01-20T14:06:01.950Z,36.70
2023-01-20T14:08:41.255Z,39.20
2023-01-20T14:11:15.452Z,35.00
2023-01-20T14:13:51.183Z,41.70
2023-01-20T14:16:37.532Z,40.40
2023-01-20T14:19:32.622Z,58.50
2023-01-20T14:22:05.912Z,41.80
2023-01-20T14:24:38.251Z,48.60
2023-01-20T14:27:07.832Z,41.60
2023-01-20T14:29:35.542Z,42.40
2023-01-20T14:32:22.252Z,49.20
2023-01-20T14:34:50.830Z,47.20
2023-01-20T14:37:21.649Z,37.30
2023-01-20T14:39:49.780Z,37.60
2023-01-20T14:42:18.901Z,40.40
2023-01-20T14:44:51.021Z,39.90
2023-01-20T14:47:19.497Z,39.80
2023-01-20T14:49:51.558Z,40.20
2023-01-20T14:52:30.147Z,41.90
2023-01-20T14:54:58.015Z,45.90
2023-01-20T14:57:26.815Z,45.60
2023-01-20T15:00:16.564Z,47.70
2023-01-20T15:03:11.019Z,44.20
2023-01-20T15:05:41.500Z,48.40
2023-01-20T15:08:12.157Z,44.70
2023-01-20T15:10:39.899Z,42.70
2023-01-20T15:13:27.064Z,53.00
2023-01-20T15:16:17.095Z,44.90
2023-01-20T15:19:05.338Z,51.20
2023-01-20T15:21:37.964Z,46.40
2023-01-20T15:24:19.612Z,47.20
2023-01-20T15:26:49.419Z,45.30
2023-01-20T15:29:26.895Z,45.90
2023-01-20T15:31:55.538Z,52.80
2023-01-20T15:34:23.285Z,47.70
2023-01-20T15:36:52.089Z,51.40
2023-01-20T15:39:21.189Z,50.30
2023-01-20T15:41:54.332Z,50.90
2023-01-20T15:44:22.423Z,54.70
2023-01-20T15:46:50.203Z,54.60
2023-01-20T15:49:18.219Z,50.10
2023-01-20T15:51:46.040Z,54.50
2023-01-20T15:54:16.530Z,49.30
2023-01-20T15:56:44.201Z,48.10
2023-01-20T15:59:20.112Z,51.80
2023-01-20T16:01:50.348Z,62.60
2023-01-20T16:04:18.134Z,51.00
2023-01-20T16:06:45.892Z,57.50
2023-01-20T16:09:19.804Z,52.70
2023-01-20T16:11:48.178Z,47.50
2023-01-20T16:14:16.254Z,50.30
2023-01-20T16:16:44.117Z,53.70
2023-01-20T16:19:14.759Z,61.60
2023-01-20T16:21:45.250Z,50.50
2023-01-20T16:24:13.270Z,89.30
2023-01-20T16:26:41.031Z,58.90
2023-01-20T16:29:09.401Z,60.40
2023-01-20T16:31:37.008Z,65.30
2023-01-20T16:34:05.334Z,64.40
2023-01-20T20:14:06.848Z,43.90
2023-01-20T20:16:35.954Z,41.40
2023-01-20T20:19:04.642Z,38.20
2023-01-20T20:21:32.390Z,38.70
2023-01-20T20:24:00.785Z,45.00
2023-01-20T20:26:30.414Z,46.30
2023-01-20T20:29:01.861Z,43.50
2023-01-20T20:31:30.071Z,43.10
2023-01-20T20:33:59.189Z,41.30
2023-01-20T20:36:31.293Z,41.90
2023-01-20T20:38:59.716Z,41.80
2023-01-20T20:41:29.416Z,45.70
2023-01-20T20:44:01.216Z,36.60
2023-01-20T20:46:30.220Z,46.70
2023-01-20T20:49:01.992Z,41.10
2023-01-20T20:51:33.890Z,41.90
2023-01-20T20:54:02.787Z,38.90
2023-01-20T20:56:34.960Z,39.50
2023-01-20T20:59:04.577Z,45.30
2023-01-20T21:01:35.008Z,44.90
2023-01-20T21:04:03.585Z,35.20
2023-01-20T21:06:31.422Z,36.50
2023-01-20T21:08:59.638Z,36.60
2023-01-20T21:11:27.761Z,45.20
2023-01-20T21:13:55.886Z,39.50
2023-01-20T21:16:24.051Z,42.00
2023-01-20T21:18:53.543Z,37.10
2023-01-20T21:21:21.515Z,35.30
2023-01-20T21:23:57.091Z,36.70
2023-01-20T21:26:27.068Z,33.70
2023-01-20T21:28:56.562Z,38.20
2023-01-20T21:31:27.631Z,38.70
2023-01-20T21:33:55.663Z,41.10
2023-01-20T21:36:23.429Z,39.60
2023-01-20T21:38:51.069Z,36.00
2023-01-20T21:41:18.815Z,37.60
2023-01-20T21:44:06.340Z,38.20
2023-01-20T21:46:39.198Z,40.20
2023-01-20T21:49:29.093Z,36.10
2023-01-20T21:52:14.879Z,37.70
2023-01-20T21:54:42.714Z,39.60
2023-01-20T21:57:09.768Z,36.60
2023-01-20T21:59:37.315Z,31.00
2023-01-20T22:02:05.274Z,39.80
2023-01-20T22:04:34.333Z,45.30
2023-01-20T22:07:01.555Z,38.90
2023-01-20T22:09:28.464Z,37.20
2023-01-20T22:11:55.539Z,38.00
2023-01-20T22:14:22.894Z,30.10
2023-01-20T22:16:50.421Z,31.20
2023-01-20T22:19:17.820Z,40.50
2023-01-20T22:21:45.536Z,35.00
2023-01-20T22:24:12.713Z,35.80
2023-01-20T22:26:40.572Z,32.00
2023-01-20T22:29:08.125Z,34.80
2023-01-20T22:31:35.938Z,33.10
2023-01-20T22:34:05.428Z,36.40
2023-01-20T22:36:52.609Z,38.30
2023-01-20T22:39:20.484Z,31.30
2023-01-20T22:41:48.171Z,29.70
2023-01-20T22:44:16.020Z,33.10
2023-01-20T22:46:43.673Z,34.70
2023-01-20T22:49:11.331Z,31.60
2023-01-20T22:51:38.748Z,33.40
2023-01-20T22:54:07.747Z,31.70
2023-01-20T22:56:36.055Z,29.60
2023-01-20T22:59:03.842Z,29.50
2023-01-20T23:01:35.311Z,31.10
2023-01-20T23:04:05.483Z,33.30
2023-01-20T23:06:34.707Z,30.00
2023-01-20T23:09:04.676Z,32.90
2023-01-20T23:11:32.716Z,34.30
2023-01-20T23:14:00.953Z,30.20
2023-01-20T23:16:28.548Z,29.10
2023-01-20T23:18:56.184Z,43.70
2023-01-20T23:21:24.651Z,30.50
2023-01-20T23:23:55.144Z,33.50
2023-01-20T23:26:24.610Z,35.40
2023-01-20T23:28:53.841Z,32.40
2023-01-20T23:31:22.990Z,35.40
2023-01-20T23:33:50.666Z,27.00
2023-01-20T23:36:20.805Z,28.70
2023-01-20T23:38:48.671Z,26.60
2023-01-20T23:41:16.288Z,40.20
2023-01-20T23:43:43.935Z,32.60
2023-01-20T23:46:12.852Z,26.40
2023-01-20T23:48:40.703Z,29.40
2023-01-20T23:51:08.224Z,29.70
2023-01-20T23:53:37.808Z,28.40
2023-01-20T23:56:07.287Z,23.80
2023-01-20T23:58:34.957Z,22.70
